sensor_id;sensor_type;location;lat;lon;timestamp;temperature;humidity
38325;DHT22;24126;52.672;13.622;2022-10-17T00:00:53;17.60;70.00
38325;DHT22;24126;52.672;13.622;2022-10-17T00:03:20;17.70;70.10
38325;DHT22;24126;52.672;13.622;2022-10-17T00:05:47;17.70;70.20
38325;DHT22;24126;52.672;13.622;2022-10-17T00:08:15;17.70;70.20
38325;DHT22;24126;52.672;13.622;2022-10-17T00:10:43;17.70;70.20
38325;DHT22;24126;52.672;13.622;2022-10-17T00:13:10;17.70;70.20
38325;DHT22;24126;52.672;13.622;2022-10-17T00:15:41;17.70;70.30
38325;DHT22;24126;52.672;13.622;2022-10-17T00:18:11;17.70;70.40
38325;DHT22;24126;52.672;13.622;2022-10-17T00:20:39;17.80;70.50
38325;DHT22;24126;52.672;13.622;2022-10-17T00:23:06;17.80;70.60
38325;DHT22;24126;52.672;13.622;2022-10-17T00:25:33;17.80;70.60
38325;DHT22;24126;52.672;13.622;2022-10-17T00:28:01;17.80;70.70
38325;DHT22;24126;52.672;13.622;2022-10-17T00:30:29;17.80;70.80
38325;DHT22;24126;52.672;13.622;2022-10-17T00:32:57;17.90;70.90
38325;DHT22;24126;52.672;13.622;2022-10-17T00:35:24;17.80;70.90
38325;DHT22;24126;52.672;13.622;2022-10-17T00:37:52;17.90;70.90
38325;DHT22;24126;52.672;13.622;2022-10-17T00:40:19;17.90;71.00
38325;DHT22;24126;52.672;13.622;2022-10-17T00:42:46;17.90;71.00
38325;DHT22;24126;52.672;13.622;2022-10-17T00:45:20;17.90;71.00
38325;DHT22;24126;52.672;13.622;2022-10-17T00:47:50;17.90;71.00
38325;DHT22;24126;52.672;13.622;2022-10-17T00:50:17;18.00;71.00
38325;DHT22;24126;52.672;13.622;2022-10-17T00:52:45;18.00;70.90
38325;DHT22;24126;52.672;13.622;2022-10-17T00:55:17;18.00;70.80
38325;DHT22;24126;52.672;13.622;2022-10-17T00:57:46;18.00;70.70
38325;DHT22;24126;52.672;13.622;2022-10-17T01:00:14;18.00;70.70
38325;DHT22;24126;52.672;13.622;2022-10-17T01:02:41;18.00;70.60
38325;DHT22;24126;52.672;13.622;2022-10-17T01:05:08;18.10;70.70
38325;DHT22;24126;52.672;13.622;2022-10-17T01:07:36;18.10;70.70
38325;DHT22;24126;52.672;13.622;2022-10-17T01:10:04;18.10;70.70
38325;DHT22;24126;52.672;13.622;2022-10-17T01:12:56;18.10;70.80
38325;DHT22;24126;52.672;13.622;2022-10-17T01:29:04;18.10;71.00
38325;DHT22;24126;52.672;13.622;2022-10-17T01:31:35;18.10;70.90
38325;DHT22;24126;52.672;13.622;2022-10-17T01:34:51;18.10;70.90
38325;DHT22;24126;52.672;13.622;2022-10-17T01:39:52;18.20;71.10
38325;DHT22;24126;52.672;13.622;2022-10-17T01:42:38;18.20;71.00
38325;DHT22;24126;52.672;13.622;2022-10-17T01:47:35;18.20;70.80
38325;DHT22;24126;52.672;13.622;2022-10-17T01:50:05;18.30;70.90
38325;DHT22;24126;52.672;13.622;2022-10-17T01:52:37;18.20;70.80
38325;DHT22;24126;52.672;13.622;2022-10-17T01:55:07;18.20;70.70
38325;DHT22;24126;52.672;13.622;2022-10-17T01:57:37;18.20;70.60
38325;DHT22;24126;52.672;13.622;2022-10-17T02:00:05;18.20;70.80
38325;DHT22;24126;52.672;13.622;2022-10-17T02:02:39;18.20;70.80
38325;DHT22;24126;52.672;13.622;2022-10-17T02:05:07;18.20;70.70
38325;DHT22;24126;52.672;13.622;2022-10-17T02:07:34;18.20;70.70
38325;DHT22;24126;52.672;13.622;2022-10-17T02:10:01;18.20;70.60
38325;DHT22;24126;52.672;13.622;2022-10-17T02:15:20;18.20;70.50
38325;DHT22;24126;52.672;13.622;2022-10-17T02:20:40;18.30;70.30
38325;DHT22;24126;52.672;13.622;2022-10-17T02:23:16;18.20;70.30
38325;DHT22;24126;52.672;13.622;2022-10-17T02:25:53;18.20;70.20
38325;DHT22;24126;52.672;13.622;2022-10-17T02:28:26;18.20;70.20
38325;DHT22;24126;52.672;13.622;2022-10-17T02:31:01;18.20;70.20
38325;DHT22;24126;52.672;13.622;2022-10-17T02:33:33;18.10;70.20
38325;DHT22;24126;52.672;13.622;2022-10-17T02:36:04;18.10;70.20
38325;DHT22;24126;52.672;13.622;2022-10-17T02:38:32;18.00;70.20
38325;DHT22;24126;52.672;13.622;2022-10-17T02:41:00;18.00;70.30
38325;DHT22;24126;52.672;13.622;2022-10-17T02:43:28;18.00;70.30
38325;DHT22;24126;52.672;13.622;2022-10-17T02:45:57;18.00;70.30
38325;DHT22;24126;52.672;13.622;2022-10-17T02:48:26;17.90;70.30
38325;DHT22;24126;52.672;13.622;2022-10-17T02:51:00;17.90;70.40
38325;DHT22;24126;52.672;13.622;2022-10-17T02:53:48;17.90;70.50
38325;DHT22;24126;52.672;13.622;2022-10-17T02:56:20;17.80;70.50
38325;DHT22;24126;52.672;13.622;2022-10-17T02:58:49;17.80;70.70
38325;DHT22;24126;52.672;13.622;2022-10-17T03:01:16;17.80;70.80
38325;DHT22;24126;52.672;13.622;2022-10-17T03:03:44;17.80;70.90
38325;DHT22;24126;52.672;13.622;2022-10-17T03:06:12;17.80;71.10
38325;DHT22;24126;52.672;13.622;2022-10-17T03:08:39;17.80;71.20
38325;DHT22;24126;52.672;13.622;2022-10-17T03:11:06;17.80;71.20
38325;DHT22;24126;52.672;13.622;2022-10-17T03:13:33;17.80;71.20
38325;DHT22;24126;52.672;13.622;2022-10-17T03:16:00;17.90;71.30
38325;DHT22;24126;52.672;13.622;2022-10-17T03:18:27;18.00;71.30
38325;DHT22;24126;52.672;13.622;2022-10-17T03:20:58;18.00;71.40
38325;DHT22;24126;52.672;13.622;2022-10-17T03:23:25;18.00;71.30
38325;DHT22;24126;52.672;13.622;2022-10-17T03:25:53;18.10;72.10
38325;DHT22;24126;52.672;13.622;2022-10-17T03:28:21;18.10;71.30
38325;DHT22;24126;52.672;13.622;2022-10-17T03:30:48;18.10;71.30
38325;DHT22;24126;52.672;13.622;2022-10-17T03:33:16;18.10;71.40
38325;DHT22;24126;52.672;13.622;2022-10-17T03:35:43;18.10;71.50
38325;DHT22;24126;52.672;13.622;2022-10-17T03:38:10;18.20;71.50
38325;DHT22;24126;52.672;13.622;2022-10-17T03:40:37;18.20;71.40
38325;DHT22;24126;52.672;13.622;2022-10-17T03:43:05;18.20;71.50
38325;DHT22;24126;52.672;13.622;2022-10-17T03:45:34;18.20;71.50
38325;DHT22;24126;52.672;13.622;2022-10-17T03:48:01;18.20;71.60
38325;DHT22;24126;52.672;13.622;2022-10-17T03:50:29;18.20;71.60
38325;DHT22;24126;52.672;13.622;2022-10-17T03:52:57;18.20;71.60
38325;DHT22;24126;52.672;13.622;2022-10-17T03:55:24;18.20;71.90
38325;DHT22;24126;52.672;13.622;2022-10-17T03:57:52;18.10;72.10
38325;DHT22;24126;52.672;13.622;2022-10-17T04:00:22;18.20;72.40
38325;DHT22;24126;52.672;13.622;2022-10-17T04:02:56;18.10;72.50
38325;DHT22;24126;52.672;13.622;2022-10-17T04:05:24;18.20;72.50
38325;DHT22;24126;52.672;13.622;2022-10-17T04:07:52;18.20;72.60
38325;DHT22;24126;52.672;13.622;2022-10-17T04:10:26;18.10;72.60
38325;DHT22;24126;52.672;13.622;2022-10-17T04:12:54;18.20;72.70
38325;DHT22;24126;52.672;13.622;2022-10-17T04:15:21;18.20;72.80
38325;DHT22;24126;52.672;13.622;2022-10-17T04:17:48;18.20;72.80
38325;DHT22;24126;52.672;13.622;2022-10-17T04:20:16;18.10;72.80
38325;DHT22;24126;52.672;13.622;2022-10-17T04:22:43;18.10;72.90
38325;DHT22;24126;52.672;13.622;2022-10-17T04:25:11;18.10;73.10
38325;DHT22;24126;52.672;13.622;2022-10-17T04:27:42;18.10;73.10
38325;DHT22;24126;52.672;13.622;2022-10-17T04:30:09;18.10;73.10
38325;DHT22;24126;52.672;13.622;2022-10-17T04:32:36;18.10;73.10
38325;DHT22;24126;52.672;13.622;2022-10-17T04:35:19;18.10;73.30
38325;DHT22;24126;52.672;13.622;2022-10-17T04:37:50;18.10;73.40
38325;DHT22;24126;52.672;13.622;2022-10-17T04:40:19;18.10;73.40
38325;DHT22;24126;52.672;13.622;2022-10-17T04:42:46;18.00;73.50
38325;DHT22;24126;52.672;13.622;2022-10-17T04:45:18;18.00;73.60
38325;DHT22;24126;52.672;13.622;2022-10-17T04:47:49;18.00;73.60
38325;DHT22;24126;52.672;13.622;2022-10-17T04:50:16;18.00;73.80
38325;DHT22;24126;52.672;13.622;2022-10-17T04:53:01;18.00;73.80
38325;DHT22;24126;52.672;13.622;2022-10-17T04:55:29;18.00;74.00
38325;DHT22;24126;52.672;13.622;2022-10-17T04:57:58;18.00;74.00
38325;DHT22;24126;52.672;13.622;2022-10-17T05:00:25;18.00;74.10
38325;DHT22;24126;52.672;13.622;2022-10-17T05:03:02;18.00;74.30
38325;DHT22;24126;52.672;13.622;2022-10-17T05:05:29;18.00;74.30
38325;DHT22;24126;52.672;13.622;2022-10-17T05:07:58;18.10;74.60
38325;DHT22;24126;52.672;13.622;2022-10-17T05:10:29;18.00;74.50
38325;DHT22;24126;52.672;13.622;2022-10-17T05:12:57;18.00;74.40
38325;DHT22;24126;52.672;13.622;2022-10-17T05:15:30;18.10;74.30
38325;DHT22;24126;52.672;13.622;2022-10-17T05:17:57;18.00;74.40
38325;DHT22;24126;52.672;13.622;2022-10-17T05:20:27;18.00;74.50
38325;DHT22;24126;52.672;13.622;2022-10-17T05:22:54;18.00;74.40
38325;DHT22;24126;52.672;13.622;2022-10-17T05:25:21;18.00;74.50
38325;DHT22;24126;52.672;13.622;2022-10-17T05:27:49;18.00;74.60
38325;DHT22;24126;52.672;13.622;2022-10-17T05:30:17;18.00;74.70
38325;DHT22;24126;52.672;13.622;2022-10-17T05:32:44;17.90;74.70
38325;DHT22;24126;52.672;13.622;2022-10-17T05:35:11;18.00;74.90
38325;DHT22;24126;52.672;13.622;2022-10-17T05:37:39;18.00;74.90
38325;DHT22;24126;52.672;13.622;2022-10-17T05:40:08;17.90;74.90
38325;DHT22;24126;52.672;13.622;2022-10-17T05:42:36;17.90;75.00
38325;DHT22;24126;52.672;13.622;2022-10-17T05:45:03;17.90;75.30
38325;DHT22;24126;52.672;13.622;2022-10-17T05:47:31;18.00;76.10
38325;DHT22;24126;52.672;13.622;2022-10-17T05:49:58;18.00;75.40
38325;DHT22;24126;52.672;13.622;2022-10-17T05:52:32;17.90;75.60
38325;DHT22;24126;52.672;13.622;2022-10-17T05:55:06;17.90;76.20
38325;DHT22;24126;52.672;13.622;2022-10-17T05:57:35;18.00;76.30
38325;DHT22;24126;52.672;13.622;2022-10-17T06:00:05;18.00;76.40
38325;DHT22;24126;52.672;13.622;2022-10-17T06:02:40;18.00;76.20
38325;DHT22;24126;52.672;13.622;2022-10-17T06:05:09;18.00;76.70
38325;DHT22;24126;52.672;13.622;2022-10-17T06:07:36;18.00;76.90
38325;DHT22;24126;52.672;13.622;2022-10-17T06:10:04;18.10;77.40
38325;DHT22;24126;52.672;13.622;2022-10-17T06:12:32;18.10;77.50
38325;DHT22;24126;52.672;13.622;2022-10-17T06:14:59;18.20;77.60
38325;DHT22;24126;52.672;13.622;2022-10-17T06:17:27;18.20;77.80
38325;DHT22;24126;52.672;13.622;2022-10-17T06:19:55;18.30;77.80
38325;DHT22;24126;52.672;13.622;2022-10-17T06:22:23;18.30;77.90
38325;DHT22;24126;52.672;13.622;2022-10-17T06:24:50;18.30;78.10
38325;DHT22;24126;52.672;13.622;2022-10-17T06:27:19;18.30;78.00
38325;DHT22;24126;52.672;13.622;2022-10-17T06:29:46;18.40;78.10
38325;DHT22;24126;52.672;13.622;2022-10-17T06:32:13;18.40;78.00
38325;DHT22;24126;52.672;13.622;2022-10-17T06:34:41;18.50;78.00
38325;DHT22;24126;52.672;13.622;2022-10-17T06:37:09;18.50;77.90
38325;DHT22;24126;52.672;13.622;2022-10-17T06:39:38;18.50;77.90
38325;DHT22;24126;52.672;13.622;2022-10-17T06:42:18;18.50;78.10
38325;DHT22;24126;52.672;13.622;2022-10-17T06:45:09;18.50;78.20
38325;DHT22;24126;52.672;13.622;2022-10-17T06:48:02;18.50;78.50
38325;DHT22;24126;52.672;13.622;2022-10-17T06:50:41;18.60;78.40
38325;DHT22;24126;52.672;13.622;2022-10-17T06:53:15;18.60;78.40
38325;DHT22;24126;52.672;13.622;2022-10-17T06:56:07;18.60;78.50
38325;DHT22;24126;52.672;13.622;2022-10-17T06:58:54;18.70;78.60
38325;DHT22;24126;52.672;13.622;2022-10-17T07:01:25;18.70;78.70
38325;DHT22;24126;52.672;13.622;2022-10-17T07:03:58;18.70;78.70
38325;DHT22;24126;52.672;13.622;2022-10-17T07:06:27;18.70;78.70
38325;DHT22;24126;52.672;13.622;2022-10-17T07:08:56;18.70;78.50
38325;DHT22;24126;52.672;13.622;2022-10-17T07:11:23;18.80;79.00
38325;DHT22;24126;52.672;13.622;2022-10-17T07:13:51;18.80;78.90
38325;DHT22;24126;52.672;13.622;2022-10-17T07:16:20;18.90;78.90
38325;DHT22;24126;52.672;13.622;2022-10-17T07:18:54;18.90;78.80
38325;DHT22;24126;52.672;13.622;2022-10-17T07:21:21;19.00;78.70
38325;DHT22;24126;52.672;13.622;2022-10-17T07:23:48;19.10;78.70
38325;DHT22;24126;52.672;13.622;2022-10-17T07:26:16;19.10;78.70
38325;DHT22;24126;52.672;13.622;2022-10-17T07:28:44;19.20;78.60
38325;DHT22;24126;52.672;13.622;2022-10-17T07:31:30;19.30;78.50
38325;DHT22;24126;52.672;13.622;2022-10-17T07:33:59;19.40;78.20
38325;DHT22;24126;52.672;13.622;2022-10-17T07:36:27;19.50;78.20
38325;DHT22;24126;52.672;13.622;2022-10-17T07:38:55;19.60;77.80
38325;DHT22;24126;52.672;13.622;2022-10-17T07:41:24;19.70;77.50
38325;DHT22;24126;52.672;13.622;2022-10-17T07:43:52;19.90;77.20
38325;DHT22;24126;52.672;13.622;2022-10-17T07:46:25;20.00;77.00
38325;DHT22;24126;52.672;13.622;2022-10-17T07:48:52;20.20;77.10
38325;DHT22;24126;52.672;13.622;2022-10-17T07:51:20;20.40;76.00
38325;DHT22;24126;52.672;13.622;2022-10-17T07:53:47;20.70;75.80
38325;DHT22;24126;52.672;13.622;2022-10-17T07:56:15;21.10;74.70
38325;DHT22;24126;52.672;13.622;2022-10-17T07:58:42;21.50;73.10
38325;DHT22;24126;52.672;13.622;2022-10-17T08:01:09;21.80;72.10
38325;DHT22;24126;52.672;13.622;2022-10-17T08:03:40;22.00;71.50
38325;DHT22;24126;52.672;13.622;2022-10-17T08:06:07;22.20;71.10
38325;DHT22;24126;52.672;13.622;2022-10-17T08:08:34;22.30;71.40
38325;DHT22;24126;52.672;13.622;2022-10-17T08:11:03;22.50;70.60
38325;DHT22;24126;52.672;13.622;2022-10-17T08:13:31;22.60;69.90
38325;DHT22;24126;52.672;13.622;2022-10-17T08:15:59;22.70;69.70
38325;DHT22;24126;52.672;13.622;2022-10-17T08:18:27;22.90;70.10
38325;DHT22;24126;52.672;13.622;2022-10-17T08:20:54;23.10;69.50
38325;DHT22;24126;52.672;13.622;2022-10-17T08:23:21;23.30;68.50
38325;DHT22;24126;52.672;13.622;2022-10-17T08:25:48;23.40;68.30
38325;DHT22;24126;52.672;13.622;2022-10-17T08:28:16;23.50;68.20
38325;DHT22;24126;52.672;13.622;2022-10-17T08:30:43;23.60;68.00
38325;DHT22;24126;52.672;13.622;2022-10-17T08:33:10;23.80;67.40
38325;DHT22;24126;52.672;13.622;2022-10-17T08:35:37;23.90;66.90
38325;DHT22;24126;52.672;13.622;2022-10-17T08:38:04;24.00;66.50
38325;DHT22;24126;52.672;13.622;2022-10-17T08:40:32;24.20;66.30
38325;DHT22;24126;52.672;13.622;2022-10-17T08:45:44;24.40;65.70
38325;DHT22;24126;52.672;13.622;2022-10-17T08:48:14;24.50;65.10
38325;DHT22;24126;52.672;13.622;2022-10-17T08:51:00;24.50;64.90
38325;DHT22;24126;52.672;13.622;2022-10-17T08:53:38;24.60;64.50
38325;DHT22;24126;52.672;13.622;2022-10-17T08:56:20;24.60;64.30
38325;DHT22;24126;52.672;13.622;2022-10-17T08:58:48;24.60;64.90
38325;DHT22;24126;52.672;13.622;2022-10-17T09:04:06;24.90;63.40
38325;DHT22;24126;52.672;13.622;2022-10-17T09:06:53;25.00;63.30
38325;DHT22;24126;52.672;13.622;2022-10-17T09:12:01;25.40;62.80
38325;DHT22;24126;52.672;13.622;2022-10-17T09:17:33;25.80;62.20
38325;DHT22;24126;52.672;13.622;2022-10-17T09:20:11;25.90;61.50
38325;DHT22;24126;52.672;13.622;2022-10-17T09:22:45;26.00;61.10
38325;DHT22;24126;52.672;13.622;2022-10-17T09:25:14;26.00;61.00
38325;DHT22;24126;52.672;13.622;2022-10-17T09:27:44;26.20;61.10
38325;DHT22;24126;52.672;13.622;2022-10-17T09:32:40;26.30;60.10
38325;DHT22;24126;52.672;13.622;2022-10-17T09:35:11;26.40;60.10
38325;DHT22;24126;52.672;13.622;2022-10-17T09:37:39;26.50;60.10
38325;DHT22;24126;52.672;13.622;2022-10-17T09:40:10;26.60;60.10
38325;DHT22;24126;52.672;13.622;2022-10-17T09:42:41;26.70;59.50
38325;DHT22;24126;52.672;13.622;2022-10-17T09:47:38;26.90;59.30
38325;DHT22;24126;52.672;13.622;2022-10-17T09:50:19;27.00;59.20
38325;DHT22;24126;52.672;13.622;2022-10-17T09:52:47;27.10;58.10
38325;DHT22;24126;52.672;13.622;2022-10-17T09:58:02;27.20;58.00
38325;DHT22;24126;52.672;13.622;2022-10-17T10:03:08;27.30;57.50
38325;DHT22;24126;52.672;13.622;2022-10-17T10:05:36;27.30;57.30
38325;DHT22;24126;52.672;13.622;2022-10-17T10:08:04;27.40;57.90
38325;DHT22;24126;52.672;13.622;2022-10-17T10:10:31;27.50;57.60
38325;DHT22;24126;52.672;13.622;2022-10-17T10:15:41;27.70;57.10
38325;DHT22;24126;52.672;13.622;2022-10-17T10:21:08;27.80;56.60
38325;DHT22;24126;52.672;13.622;2022-10-17T10:23:37;27.90;56.50
38325;DHT22;24126;52.672;13.622;2022-10-17T10:26:13;28.00;56.90
38325;DHT22;24126;52.672;13.622;2022-10-17T10:28:47;28.00;56.80
38325;DHT22;24126;52.672;13.622;2022-10-17T10:31:16;28.00;56.00
38325;DHT22;24126;52.672;13.622;2022-10-17T10:33:51;28.00;56.10
38325;DHT22;24126;52.672;13.622;2022-10-17T10:36:18;27.90;56.00
38325;DHT22;24126;52.672;13.622;2022-10-17T10:38:54;27.90;56.20
38325;DHT22;24126;52.672;13.622;2022-10-17T10:41:22;27.90;56.40
38325;DHT22;24126;52.672;13.622;2022-10-17T10:43:52;27.80;56.20
38325;DHT22;24126;52.672;13.622;2022-10-17T10:46:21;27.70;56.00
38325;DHT22;24126;52.672;13.622;2022-10-17T10:48:56;27.70;56.40
38325;DHT22;24126;52.672;13.622;2022-10-17T10:51:26;27.70;56.70
38325;DHT22;24126;52.672;13.622;2022-10-17T10:56:57;27.90;56.40
38325;DHT22;24126;52.672;13.622;2022-10-17T10:59:30;28.00;56.10
38325;DHT22;24126;52.672;13.622;2022-10-17T11:02:03;28.20;56.00
38325;DHT22;24126;52.672;13.622;2022-10-17T11:10:07;28.30;54.80
38325;DHT22;24126;52.672;13.622;2022-10-17T11:12:44;28.30;54.80
38325;DHT22;24126;52.672;13.622;2022-10-17T11:15:18;28.20;55.00
38325;DHT22;24126;52.672;13.622;2022-10-17T11:22:47;28.40;55.00
38325;DHT22;24126;52.672;13.622;2022-10-17T11:25:31;28.40;55.00
38325;DHT22;24126;52.672;13.622;2022-10-17T11:27:59;28.40;54.70
38325;DHT22;24126;52.672;13.622;2022-10-17T11:30:27;28.40;54.70
38325;DHT22;24126;52.672;13.622;2022-10-17T11:32:58;28.40;54.40
38325;DHT22;24126;52.672;13.622;2022-10-17T11:35:27;28.40;54.10
38325;DHT22;24126;52.672;13.622;2022-10-17T11:38:04;28.40;54.30
38325;DHT22;24126;52.672;13.622;2022-10-17T11:40:34;28.40;54.30
38325;DHT22;24126;52.672;13.622;2022-10-17T11:43:03;28.40;54.20
38325;DHT22;24126;52.672;13.622;2022-10-17T11:45:33;28.50;54.50
38325;DHT22;24126;52.672;13.622;2022-10-17T11:48:03;28.50;53.70
38325;DHT22;24126;52.672;13.622;2022-10-17T11:50:34;28.50;54.00
38325;DHT22;24126;52.672;13.622;2022-10-17T11:53:19;28.50;53.90
38325;DHT22;24126;52.672;13.622;2022-10-17T11:55:48;28.50;53.90
38325;DHT22;24126;52.672;13.622;2022-10-17T12:00:59;28.40;53.90
38325;DHT22;24126;52.672;13.622;2022-10-17T12:08:57;28.40;53.70
38325;DHT22;24126;52.672;13.622;2022-10-17T12:17:01;28.20;54.10
38325;DHT22;24126;52.672;13.622;2022-10-17T12:19:29;28.20;53.90
38325;DHT22;24126;52.672;13.622;2022-10-17T12:29:44;28.40;53.50
38325;DHT22;24126;52.672;13.622;2022-10-17T12:32:13;28.50;54.20
38325;DHT22;24126;52.672;13.622;2022-10-17T12:34:50;28.50;53.40
38325;DHT22;24126;52.672;13.622;2022-10-17T12:37:40;28.60;53.80
38325;DHT22;24126;52.672;13.622;2022-10-17T12:40:23;28.60;53.50
38325;DHT22;24126;52.672;13.622;2022-10-17T12:42:51;28.60;53.00
38325;DHT22;24126;52.672;13.622;2022-10-17T12:48:05;28.60;52.50
38325;DHT22;24126;52.672;13.622;2022-10-17T12:51:19;28.50;52.80
38325;DHT22;24126;52.672;13.622;2022-10-17T12:53:28;28.50;52.90
38325;DHT22;24126;52.672;13.622;2022-10-17T12:56:01;28.40;52.70
38325;DHT22;24126;52.672;13.622;2022-10-17T12:58:28;28.40;53.00
38325;DHT22;24126;52.672;13.622;2022-10-17T13:00:57;28.40;53.00
38325;DHT22;24126;52.672;13.622;2022-10-17T13:03:25;28.40;53.00
38325;DHT22;24126;52.672;13.622;2022-10-17T13:05:59;28.30;52.90
38325;DHT22;24126;52.672;13.622;2022-10-17T13:08:28;28.20;52.60
38325;DHT22;24126;52.672;13.622;2022-10-17T13:10:56;28.10;53.20
38325;DHT22;24126;52.672;13.622;2022-10-17T13:15:58;28.00;53.20
38325;DHT22;24126;52.672;13.622;2022-10-17T13:18:26;28.00;53.50
38325;DHT22;24126;52.672;13.622;2022-10-17T13:21:01;28.00;53.80
38325;DHT22;24126;52.672;13.622;2022-10-17T13:23:36;28.00;54.00
38325;DHT22;24126;52.672;13.622;2022-10-17T13:26:11;27.90;53.80
38325;DHT22;24126;52.672;13.622;2022-10-17T13:28:38;27.90;54.10
38325;DHT22;24126;52.672;13.622;2022-10-17T13:31:06;27.90;54.10
38325;DHT22;24126;52.672;13.622;2022-10-17T13:33:35;27.90;54.20
38325;DHT22;24126;52.672;13.622;2022-10-17T13:36:07;27.90;54.00
38325;DHT22;24126;52.672;13.622;2022-10-17T13:38:40;27.90;54.00
38325;DHT22;24126;52.672;13.622;2022-10-17T13:41:10;27.80;54.20
38325;DHT22;24126;52.672;13.622;2022-10-17T13:43:38;27.80;54.00
38325;DHT22;24126;52.672;13.622;2022-10-17T13:46:05;27.80;54.20
38325;DHT22;24126;52.672;13.622;2022-10-17T13:48:35;27.70;54.50
38325;DHT22;24126;52.672;13.622;2022-10-17T13:51:03;27.70;54.60
38325;DHT22;24126;52.672;13.622;2022-10-17T13:53:32;27.70;54.80
38325;DHT22;24126;52.672;13.622;2022-10-17T13:56:01;27.70;54.60
38325;DHT22;24126;52.672;13.622;2022-10-17T13:58:30;27.70;54.40
38325;DHT22;24126;52.672;13.622;2022-10-17T14:00:59;27.70;54.10
38325;DHT22;24126;52.672;13.622;2022-10-17T14:03:27;27.70;54.00
38325;DHT22;24126;52.672;13.622;2022-10-17T14:06:04;27.70;53.80
38325;DHT22;24126;52.672;13.622;2022-10-17T14:08:34;27.70;53.20
38325;DHT22;24126;52.672;13.622;2022-10-17T14:11:02;27.60;53.00
38325;DHT22;24126;52.672;13.622;2022-10-17T14:13:39;27.60;53.10
38325;DHT22;24126;52.672;13.622;2022-10-17T14:16:07;27.60;53.20
38325;DHT22;24126;52.672;13.622;2022-10-17T14:18:35;27.60;53.10
38325;DHT22;24126;52.672;13.622;2022-10-17T14:21:04;27.60;53.20
38325;DHT22;24126;52.672;13.622;2022-10-17T14:23:39;27.60;52.90
38325;DHT22;24126;52.672;13.622;2022-10-17T14:26:10;27.50;53.00
38325;DHT22;24126;52.672;13.622;2022-10-17T14:28:38;27.50;53.10
38325;DHT22;24126;52.672;13.622;2022-10-17T14:31:17;27.50;53.30
38325;DHT22;24126;52.672;13.622;2022-10-17T14:33:46;27.50;53.40
38325;DHT22;24126;52.672;13.622;2022-10-17T14:36:13;27.40;53.30
38325;DHT22;24126;52.672;13.622;2022-10-17T14:38:49;27.40;53.40
38325;DHT22;24126;52.672;13.622;2022-10-17T14:41:20;27.40;53.50
38325;DHT22;24126;52.672;13.622;2022-10-17T14:43:51;27.40;53.70
38325;DHT22;24126;52.672;13.622;2022-10-17T14:46:19;27.40;53.40
38325;DHT22;24126;52.672;13.622;2022-10-17T14:48:49;27.30;53.30
38325;DHT22;24126;52.672;13.622;2022-10-17T14:51:18;27.30;53.60
38325;DHT22;24126;52.672;13.622;2022-10-17T14:53:58;27.20;53.50
38325;DHT22;24126;52.672;13.622;2022-10-17T14:56:26;27.20;53.50
38325;DHT22;24126;52.672;13.622;2022-10-17T14:58:54;27.20;53.40
38325;DHT22;24126;52.672;13.622;2022-10-17T15:01:20;27.10;54.10
38325;DHT22;24126;52.672;13.622;2022-10-17T15:03:48;27.10;53.70
38325;DHT22;24126;52.672;13.622;2022-10-17T15:06:31;27.10;54.00
38325;DHT22;24126;52.672;13.622;2022-10-17T15:09:00;27.00;54.00
38325;DHT22;24126;52.672;13.622;2022-10-17T15:11:27;26.90;54.00
38325;DHT22;24126;52.672;13.622;2022-10-17T15:13:54;26.80;54.00
38325;DHT22;24126;52.672;13.622;2022-10-17T15:16:25;26.80;54.30
38325;DHT22;24126;52.672;13.622;2022-10-17T15:18:52;26.70;54.30
38325;DHT22;24126;52.672;13.622;2022-10-17T15:21:20;26.70;54.50
38325;DHT22;24126;52.672;13.622;2022-10-17T15:23:48;26.60;54.70
38325;DHT22;24126;52.672;13.622;2022-10-17T15:26:17;26.60;54.70
38325;DHT22;24126;52.672;13.622;2022-10-17T15:28:45;26.50;54.80
38325;DHT22;24126;52.672;13.622;2022-10-17T15:31:13;26.50;54.90
38325;DHT22;24126;52.672;13.622;2022-10-17T15:33:41;26.40;55.00
38325;DHT22;24126;52.672;13.622;2022-10-17T15:39:42;26.30;55.20
38325;DHT22;24126;52.672;13.622;2022-10-17T15:42:10;26.30;55.40
38325;DHT22;24126;52.672;13.622;2022-10-17T15:44:39;26.20;55.50
38325;DHT22;24126;52.672;13.622;2022-10-17T15:47:12;26.10;55.60
38325;DHT22;24126;52.672;13.622;2022-10-17T15:49:43;26.10;55.80
38325;DHT22;24126;52.672;13.622;2022-10-17T15:52:10;26.00;55.90
38325;DHT22;24126;52.672;13.622;2022-10-17T15:54:37;25.90;56.00
38325;DHT22;24126;52.672;13.622;2022-10-17T15:57:04;25.80;56.10
38325;DHT22;24126;52.672;13.622;2022-10-17T15:59:32;25.80;56.30
38325;DHT22;24126;52.672;13.622;2022-10-17T16:02:00;25.70;56.30
38325;DHT22;24126;52.672;13.622;2022-10-17T16:04:27;25.70;56.30
38325;DHT22;24126;52.672;13.622;2022-10-17T16:06:55;25.60;56.30
38325;DHT22;24126;52.672;13.622;2022-10-17T16:09:22;25.60;56.40
38325;DHT22;24126;52.672;13.622;2022-10-17T16:11:49;25.60;56.40
38325;DHT22;24126;52.672;13.622;2022-10-17T16:14:18;25.60;56.50
38325;DHT22;24126;52.672;13.622;2022-10-17T16:16:46;25.60;56.50
38325;DHT22;24126;52.672;13.622;2022-10-17T16:19:23;25.60;56.70
38325;DHT22;24126;52.672;13.622;2022-10-17T16:21:51;25.50;56.70
38325;DHT22;24126;52.672;13.622;2022-10-17T16:24:26;25.40;56.70
38325;DHT22;24126;52.672;13.622;2022-10-17T16:26:53;25.40;56.80
38325;DHT22;24126;52.672;13.622;2022-10-17T16:29:20;25.40;56.90
38325;DHT22;24126;52.672;13.622;2022-10-17T16:31:50;25.30;57.00
38325;DHT22;24126;52.672;13.622;2022-10-17T16:34:17;25.30;57.20
38325;DHT22;24126;52.672;13.622;2022-10-17T16:36:44;25.20;57.20
38325;DHT22;24126;52.672;13.622;2022-10-17T16:39:11;25.20;57.40
38325;DHT22;24126;52.672;13.622;2022-10-17T16:41:39;25.10;57.50
38325;DHT22;24126;52.672;13.622;2022-10-17T16:44:07;25.00;57.70
38325;DHT22;24126;52.672;13.622;2022-10-17T16:46:35;25.00;57.90
38325;DHT22;24126;52.672;13.622;2022-10-17T16:49:03;24.90;58.10
38325;DHT22;24126;52.672;13.622;2022-10-17T16:51:30;24.90;58.20
38325;DHT22;24126;52.672;13.622;2022-10-17T16:53:58;24.80;58.20
38325;DHT22;24126;52.672;13.622;2022-10-17T16:56:29;24.80;58.30
38325;DHT22;24126;52.672;13.622;2022-10-17T16:58:58;24.80;58.50
38325;DHT22;24126;52.672;13.622;2022-10-17T17:01:25;24.80;58.50
38325;DHT22;24126;52.672;13.622;2022-10-17T17:06:29;24.80;58.60
38325;DHT22;24126;52.672;13.622;2022-10-17T17:14:19;24.70;58.80
38325;DHT22;24126;52.672;13.622;2022-10-17T17:16:48;24.70;58.80